Time;durP1;ratioP1;P1;durP2;ratioP2;P2;SDS_P1;SDS_P2;PMS_P1;PMS_P2;Temp;Humidity;BMP_temperature;BMP_pressure;BME280_temperature;BME280_humidity;BME280_pressure;Samples;Min_cycle;Max_cycle;Signal;HPM_P1;HPM_P2
2022/09/16 00:00:06;;;;;;;8.00;7.20;;;13.30;99.90;;;;;;4892218;29;20979;-94
2022/09/16 00:02:35;;;;;;;7.40;6.80;;;13.20;99.90;;;;;;4899838;29;20267;-95
2022/09/16 00:05:00;;;;;;;9.00;7.30;;;13.20;99.90;;;;;;4911341;29;20487;-96
2022/09/16 00:07:28;;;;;;;7.23;6.53;;;13.20;99.90;;;;;;4917257;29;20448;-95
2022/09/16 00:09:57;;;;;;;8.07;7.37;;;13.30;99.90;;;;;;4908968;29;20194;-94
2022/09/16 00:12:22;;;;;;;8.80;6.73;;;13.20;99.90;;;;;;4915193;29;20452;-94
2022/09/16 00:14:54;;;;;;;8.13;7.43;;;13.30;99.90;;;;;;4898896;29;20459;-95
2022/09/16 00:17:21;;;;;;;7.97;7.27;;;13.30;99.90;;;;;;4893399;29;20440;-96
2022/09/16 00:19:47;;;;;;;8.13;7.43;;;13.30;99.90;;;;;;4912477;29;20479;-96
2022/09/16 00:22:13;;;;;;;13.70;7.93;;;13.20;99.90;;;;;;4898462;29;20861;-95
2022/09/16 00:24:38;;;;;;;8.30;7.50;;;13.20;99.90;;;;;;4913308;29;20509;-94
2022/09/16 00:27:04;;;;;;;7.93;7.23;;;13.20;99.90;;;;;;4899529;29;20202;-94
2022/09/16 00:29:30;;;;;;;8.10;7.30;;;13.20;99.90;;;;;;4894633;29;20639;-95
2022/09/16 00:31:55;;;;;;;8.37;7.57;;;13.20;99.90;;;;;;4899041;29;20440;-95
2022/09/16 00:34:21;;;;;;;7.30;6.70;;;13.20;99.90;;;;;;4906403;29;20557;-94
2022/09/16 00:36:50;;;;;;;7.93;7.13;;;13.20;99.90;;;;;;4898049;29;20300;-94
2022/09/16 00:39:16;;;;;;;8.00;7.40;;;13.20;99.90;;;;;;4902034;29;20350;-94
2022/09/16 00:41:41;;;;;;;8.40;7.67;;;13.20;99.90;;;;;;4911491;29;20510;-95
2022/09/16 00:44:47;;;;;;;9.10;8.30;;;13.20;99.90;;;;;;4897736;29;20568;-95
2022/09/16 00:47:17;;;;;;;8.10;7.33;;;13.20;99.90;;;;;;4884896;29;20192;-95
2022/09/16 00:49:43;;;;;;;8.93;8.00;;;13.20;99.90;;;;;;4896424;29;20439;-95
2022/09/16 00:52:09;;;;;;;8.30;7.60;;;13.20;99.90;;;;;;4895140;29;20446;-96
2022/09/16 00:54:37;;;;;;;8.87;8.10;;;13.30;99.90;;;;;;4917734;29;20793;-96
2022/09/16 00:57:05;;;;;;;10.17;7.47;;;13.20;99.90;;;;;;4893683;29;20298;-96
2022/09/16 00:59:34;;;;;;;8.80;7.60;;;13.20;99.90;;;;;;4913060;29;20880;-95
2022/09/16 01:02:07;;;;;;;7.77;7.07;;;13.10;99.90;;;;;;4899392;29;20895;-96
2022/09/16 01:04:44;;;;;;;8.90;8.10;;;13.10;99.90;;;;;;4901441;29;20470;-95
2022/09/16 01:07:10;;;;;;;7.83;7.23;;;13.20;99.90;;;;;;4897225;29;20443;-95
2022/09/16 01:09:37;;;;;;;10.10;9.10;;;13.20;99.90;;;;;;4908381;29;20492;-93
2022/09/16 01:12:03;;;;;;;11.33;7.53;;;13.20;99.90;;;;;;4892717;29;20282;-94
2022/09/16 01:14:53;;;;;;;9.10;8.20;;;13.30;99.90;;;;;;4916059;29;20435;-93
2022/09/16 01:17:36;;;;;;;7.80;7.20;;;13.20;99.90;;;;;;4894387;29;20205;-94
2022/09/16 01:20:21;;;;;;;8.20;7.40;;;13.30;99.90;;;;;;4905588;29;20929;-91
2022/09/16 01:23:14;;;;;;;8.27;7.40;;;13.20;99.90;;;;;;4910909;29;20830;-94
2022/09/16 01:26:17;;;;;;;8.10;7.30;;;13.20;99.90;;;;;;4899357;29;20459;-93
2022/09/16 01:29:04;;;;;;;8.30;7.47;;;13.10;99.90;;;;;;4907989;29;20459;-93
2022/09/16 01:31:55;;;;;;;7.90;7.20;;;13.00;99.90;;;;;;4896377;29;20439;-93
2022/09/16 01:34:21;;;;;;;9.27;7.53;;;12.90;99.90;;;;;;4894148;29;20534;-95
2022/09/16 01:36:56;;;;;;;8.20;7.53;;;13.00;99.90;;;;;;4908644;29;20779;-95
2022/09/16 01:39:57;;;;;;;8.67;7.97;;;13.00;99.90;;;;;;4900685;29;20306;-95
2022/09/16 01:42:34;;;;;;;8.50;7.77;;;12.90;99.90;;;;;;4895932;29;20442;-94
2022/09/16 01:45:29;;;;;;;9.87;8.97;;;13.00;99.90;;;;;;4913704;29;20486;-94
2022/09/16 01:48:09;;;;;;;8.43;7.63;;;13.00;99.90;;;;;;4908300;29;20446;-93
2022/09/16 01:50:46;;;;;;;8.47;7.73;;;13.10;99.90;;;;;;4908893;29;20990;-95
2022/09/16 01:53:18;;;;;;;7.97;7.20;;;13.20;99.90;;;;;;4900798;29;22866;-94
2022/09/16 01:55:56;;;;;;;7.67;7.00;;;13.20;99.90;;;;;;4910898;29;20513;-95
2022/09/16 01:58:25;;;;;;;7.70;7.10;;;13.20;99.90;;;;;;4911596;29;20457;-95
2022/09/16 02:00:56;;;;;;;8.27;7.47;;;13.10;99.90;;;;;;4900205;29;20452;-96
2022/09/16 02:03:32;;;;;;;8.80;8.00;;;13.20;99.90;;;;;;4914813;29;20454;-96
2022/09/16 02:06:45;;;;;;;8.47;7.70;;;13.20;99.90;;;;;;4933096;29;20546;-96
2022/09/16 02:09:29;;;;;;;8.43;7.73;;;13.10;99.90;;;;;;4939278;29;20439;-96
2022/09/16 02:12:14;;;;;;;8.67;7.80;;;13.10;99.90;;;;;;4929390;29;20479;-96
2022/09/16 02:14:51;;;;;;;8.93;8.13;;;13.00;99.90;;;;;;4932167;29;20454;-96
2022/09/16 02:17:20;;;;;;;8.97;8.13;;;13.00;99.90;;;;;;4922004;29;20442;-96
2022/09/16 02:20:06;;;;;;;8.60;7.90;;;13.00;99.90;;;;;;4913604;29;20448;-96
2022/09/16 02:22:43;;;;;;;8.20;7.50;;;13.00;99.90;;;;;;4910922;29;20950;-96
2022/09/16 02:25:11;;;;;;;9.13;8.20;;;13.10;99.90;;;;;;4909747;29;20483;-96
2022/09/16 02:27:44;;;;;;;8.20;7.50;;;13.00;99.90;;;;;;4909629;29;20781;-95
2022/09/16 02:30:21;;;;;;;8.30;7.50;;;13.00;99.90;;;;;;4910326;29;20466;-96
2022/09/16 02:33:02;;;;;;;8.20;7.60;;;13.10;99.90;;;;;;4917897;29;20447;-95
2022/09/16 02:35:30;;;;;;;8.10;7.40;;;13.10;99.90;;;;;;4900779;29;20938;-95
2022/09/16 02:38:08;;;;;;;7.77;7.17;;;13.20;99.90;;;;;;4907260;29;20448;-94
2022/09/16 02:40:45;;;;;;;7.53;6.93;;;13.20;99.90;;;;;;4903520;29;20436;-93
2022/09/16 02:43:10;;;;;;;7.47;6.77;;;13.10;99.90;;;;;;4916708;29;20471;-93
2022/09/16 02:46:07;;;;;;;8.80;6.97;;;13.20;99.90;;;;;;4899868;29;21176;-95
2022/09/16 02:48:46;;;;;;;7.70;6.90;;;13.10;99.90;;;;;;4900384;29;20247;-94
2022/09/16 02:51:22;;;;;;;8.70;7.80;;;13.10;99.90;;;;;;4917322;29;20451;-88
2022/09/16 02:54:04;;;;;;;8.10;7.30;;;13.20;99.90;;;;;;4902571;29;21034;-90
2022/09/16 02:56:35;;;;;;;7.87;7.13;;;13.20;99.90;;;;;;4903745;29;20443;-90
2022/09/16 02:59:03;;;;;;;10.73;7.63;;;13.20;99.90;;;;;;4913915;29;20954;-90
2022/09/16 03:01:34;;;;;;;7.77;7.07;;;13.10;99.90;;;;;;4900009;29;20543;-90
2022/09/16 03:04:05;;;;;;;8.37;7.60;;;13.10;99.90;;;;;;4902229;29;21064;-89
2022/09/16 03:06:38;;;;;;;8.63;7.83;;;13.00;99.90;;;;;;4901708;29;20520;-90
2022/09/16 03:09:09;;;;;;;8.73;7.83;;;12.90;99.90;;;;;;4913787;29;20451;-90
2022/09/16 03:12:02;;;;;;;7.83;7.20;;;13.00;99.90;;;;;;4912274;29;20454;-91
2022/09/16 03:14:49;;;;;;;8.60;7.73;;;13.00;99.90;;;;;;4897370;29;20470;-90
2022/09/16 03:17:34;;;;;;;9.33;7.40;;;13.10;99.90;;;;;;4905425;29;20439;-90
2022/09/16 03:20:12;;;;;;;9.10;8.30;;;13.10;99.90;;;;;;4909682;29;20445;-90
2022/09/16 03:22:47;;;;;;;10.07;9.03;;;13.20;99.90;;;;;;4901947;29;21090;-89
2022/09/16 03:25:32;;;;;;;8.00;7.30;;;13.20;99.90;;;;;;4889988;29;20561;-89
2022/09/16 03:28:23;;;;;;;7.93;7.30;;;13.10;99.90;;;;;;4902154;29;20446;-89
2022/09/16 03:31:03;;;;;;;7.77;7.00;;;13.10;99.90;;;;;;4889516;29;20498;-91
2022/09/16 03:33:48;;;;;;;9.53;7.73;;;13.00;99.90;;;;;;4895532;29;20435;-89
2022/09/16 03:36:18;;;;;;;9.73;8.47;;;13.00;99.90;;;;;;4902574;29;20665;-91
2022/09/16 03:38:44;;;;;;;8.70;7.93;;;13.00;99.90;;;;;;4909606;29;20475;-90
2022/09/16 03:41:12;;;;;;;8.50;7.80;;;12.90;99.90;;;;;;4891830;29;20978;-90
2022/09/16 03:43:50;;;;;;;8.73;7.93;;;13.00;99.90;;;;;;4896884;29;20609;-90
2022/09/16 03:46:50;;;;;;;8.03;7.23;;;13.00;99.90;;;;;;4895598;29;20462;-90
2022/09/16 03:49:17;;;;;;;10.00;7.60;;;13.00;99.90;;;;;;4908566;29;20454;-91
2022/09/16 03:51:44;;;;;;;8.30;7.60;;;13.00;99.90;;;;;;4891671;29;20542;-90
2022/09/16 03:54:18;;;;;;;9.33;8.47;;;13.00;99.90;;;;;;4871611;29;20450;-90
2022/09/16 03:56:56;;;;;;;10.67;9.10;;;13.00;99.90;;;;;;4904357;29;20969;-91
2022/09/16 03:59:21;;;;;;;9.50;7.90;;;12.90;99.90;;;;;;4910999;29;20470;-89
2022/09/16 04:01:47;;;;;;;10.60;8.80;;;13.00;99.90;;;;;;4897352;29;20286;-91
2022/09/16 04:04:15;;;;;;;9.53;8.73;;;13.00;99.90;;;;;;4895397;29;20231;-90
2022/09/16 04:07:00;;;;;;;8.43;7.63;;;13.00;99.90;;;;;;4904995;29;20298;-90
2022/09/16 04:09:29;;;;;;;9.27;7.30;;;13.00;99.90;;;;;;4888961;29;21031;-91
2022/09/16 04:11:55;;;;;;;11.43;7.57;;;13.00;99.90;;;;;;4901488;29;20450;-90
2022/09/16 04:14:44;;;;;;;7.70;7.00;;;13.10;99.90;;;;;;4886300;29;20448;-89
2022/09/16 04:17:10;;;;;;;8.73;7.30;;;13.10;99.90;;;;;;4905640;29;20653;-89
2022/09/16 04:19:35;;;;;;;7.23;6.63;;;13.20;99.90;;;;;;4907816;29;20604;-91
2022/09/16 04:22:01;;;;;;;8.73;7.93;;;13.20;99.90;;;;;;4890914;29;20188;-90
2022/09/16 04:24:26;;;;;;;7.50;6.90;;;13.10;99.90;;;;;;4887076;29;20218;-90
2022/09/16 04:26:52;;;;;;;8.83;7.60;;;13.10;99.90;;;;;;4883097;29;20202;-90
2022/09/16 04:29:17;;;;;;;8.80;8.00;;;13.00;99.90;;;;;;4904114;29;20206;-90
2022/09/16 04:31:43;;;;;;;8.67;7.47;;;13.00;99.90;;;;;;4882236;29;20191;-89
2022/09/16 04:34:12;;;;;;;9.13;8.33;;;13.10;99.90;;;;;;4886687;29;20188;-90
2022/09/16 04:36:38;;;;;;;9.70;7.53;;;13.10;99.90;;;;;;4889883;29;20199;-89
2022/09/16 04:39:14;;;;;;;7.93;7.23;;;13.10;99.90;;;;;;4908355;29;20450;-90
2022/09/16 04:41:56;;;;;;;8.20;7.27;;;13.10;99.90;;;;;;4905448;29;20451;-90
2022/09/16 04:44:23;;;;;;;16.00;7.57;;;13.20;99.90;;;;;;4891852;29;20471;-91
2022/09/16 04:46:49;;;;;;;8.20;7.37;;;13.20;99.90;;;;;;4885242;29;20235;-89
2022/09/16 04:49:15;;;;;;;10.50;8.03;;;13.20;99.90;;;;;;4913051;29;20495;-91
2022/09/16 04:51:40;;;;;;;8.30;7.50;;;13.20;99.90;;;;;;4900462;29;20439;-88
2022/09/16 04:54:06;;;;;;;7.97;7.33;;;13.20;99.90;;;;;;4916821;29;20550;-89
2022/09/16 04:56:32;;;;;;;7.80;7.10;;;13.10;99.90;;;;;;4899885;29;20383;-89
2022/09/16 04:58:59;;;;;;;8.30;7.60;;;13.20;99.90;;;;;;4899417;29;20215;-90
2022/09/16 05:01:42;;;;;;;9.20;8.30;;;13.20;99.90;;;;;;4901532;29;20443;-91
2022/09/16 05:04:13;;;;;;;8.30;7.50;;;13.20;99.90;;;;;;4898674;29;20475;-91
2022/09/16 05:06:49;;;;;;;10.23;7.87;;;13.20;99.90;;;;;;4886598;29;20446;-94
2022/09/16 05:09:15;;;;;;;8.27;7.50;;;13.20;99.90;;;;;;4902809;29;20997;-88
2022/09/16 05:11:43;;;;;;;8.60;7.73;;;13.20;99.90;;;;;;4882908;29;20435;-93
2022/09/16 05:14:29;;;;;;;8.90;8.10;;;13.20;99.90;;;;;;4904618;29;20251;-92
2022/09/16 05:16:56;;;;;;;7.73;7.10;;;13.20;99.90;;;;;;4886507;29;20486;-90
2022/09/16 05:19:21;;;;;;;8.13;7.43;;;13.30;99.90;;;;;;4899962;29;20580;-92
2022/09/16 05:21:47;;;;;;;11.23;8.63;;;13.30;99.90;;;;;;4892743;29;20435;-91
2022/09/16 05:24:13;;;;;;;8.97;7.17;;;13.40;99.90;;;;;;4882502;29;20215;-91
2022/09/16 05:26:40;;;;;;;9.13;8.20;;;13.40;99.90;;;;;;4885124;29;20185;-91
2022/09/16 05:29:27;;;;;;;9.40;8.50;;;13.40;99.90;;;;;;4891111;29;20466;-88
2022/09/16 05:31:54;;;;;;;10.70;8.43;;;13.40;99.90;;;;;;4902936;29;20475;-90
2022/09/16 05:34:36;;;;;;;9.20;8.10;;;13.40;99.90;;;;;;4895375;29;20454;-90
2022/09/16 05:37:05;;;;;;;9.37;8.57;;;13.40;99.90;;;;;;4898819;29;20444;-90
2022/09/16 05:39:31;;;;;;;9.03;8.10;;;13.50;99.90;;;;;;4912623;29;20184;-90
2022/09/16 05:41:58;;;;;;;8.50;7.70;;;13.40;99.90;;;;;;4892751;29;20431;-90
2022/09/16 05:44:25;;;;;;;10.40;7.13;;;13.40;99.90;;;;;;4914237;29;20227;-90
2022/09/16 05:46:51;;;;;;;7.80;7.00;;;13.40;99.90;;;;;;4895850;29;21026;-90
2022/09/16 05:49:19;;;;;;;9.57;6.50;;;13.30;99.90;;;;;;4898906;29;20456;-89
2022/09/16 05:51:46;;;;;;;7.00;6.30;;;13.40;99.90;;;;;;4917112;29;20431;-89
2022/09/16 05:54:12;;;;;;;6.20;5.60;;;13.40;99.90;;;;;;4899046;29;20447;-89
2022/09/16 05:56:38;;;;;;;7.83;5.80;;;13.30;99.90;;;;;;4897163;29;20435;-88
2022/09/16 05:59:04;;;;;;;5.73;5.23;;;13.30;99.90;;;;;;4899406;29;20510;-87
2022/09/16 06:01:34;;;;;;;6.40;5.80;;;13.30;99.90;;;;;;4894801;29;20659;-89
2022/09/16 06:04:02;;;;;;;7.80;5.57;;;13.40;99.90;;;;;;4899224;29;20487;-88
2022/09/16 06:06:30;;;;;;;6.40;5.13;;;13.30;99.90;;;;;;4918398;29;20586;-87
2022/09/16 06:08:58;;;;;;;5.03;4.53;;;13.30;99.90;;;;;;4900545;29;20813;-87
2022/09/16 06:11:25;;;;;;;6.10;5.50;;;13.40;99.90;;;;;;4895928;29;20482;-87
2022/09/16 06:13:56;;;;;;;6.33;4.80;;;13.40;99.90;;;;;;4912914;29;20958;-87
2022/09/16 06:16:25;;;;;;;8.40;5.30;;;13.40;99.90;;;;;;4899634;29;20454;-87
2022/09/16 06:18:53;;;;;;;5.20;4.70;;;13.50;99.90;;;;;;4915270;29;20452;-88
2022/09/16 06:21:29;;;;;;;5.63;5.03;;;13.40;99.90;;;;;;4899466;29;20549;-88
2022/09/16 06:23:59;;;;;;;6.53;4.93;;;13.50;99.90;;;;;;4910737;29;20487;-88
2022/09/16 06:26:39;;;;;;;5.57;4.83;;;13.50;99.90;;;;;;4894894;29;20937;-88
2022/09/16 06:29:07;;;;;;;4.70;4.30;;;13.50;99.90;;;;;;4895961;29;20481;-87
2022/09/16 06:31:34;;;;;;;5.60;5.00;;;13.60;99.90;;;;;;4896041;29;20451;-87
2022/09/16 06:33:59;;;;;;;5.67;5.17;;;13.50;99.90;;;;;;4913277;29;20450;-88
2022/09/16 06:36:28;;;;;;;5.87;5.30;;;13.60;99.90;;;;;;4903108;29;20830;-88
2022/09/16 06:38:54;;;;;;;8.47;5.40;;;13.50;99.90;;;;;;4910137;29;20278;-87
2022/09/16 06:41:23;;;;;;;8.10;6.03;;;13.40;99.90;;;;;;4898401;29;20435;-87
2022/09/16 06:43:51;;;;;;;8.10;5.87;;;13.40;99.90;;;;;;4890260;29;20311;-87
2022/09/16 06:46:22;;;;;;;9.13;6.40;;;13.40;99.90;;;;;;4896819;29;20439;-88
2022/09/16 06:48:53;;;;;;;6.43;5.80;;;13.20;99.90;;;;;;4907780;29;20445;-86
2022/09/16 06:51:21;;;;;;;7.87;6.10;;;13.30;99.90;;;;;;4907594;29;20450;-87
2022/09/16 06:53:48;;;;;;;6.70;6.00;;;13.30;99.90;;;;;;4895946;29;20540;-88
2022/09/16 06:56:16;;;;;;;7.33;4.93;;;13.30;99.90;;;;;;4893572;29;20455;-88
2022/09/16 06:58:46;;;;;;;5.30;4.80;;;13.10;99.90;;;;;;4901537;29;20454;-88
2022/09/16 07:01:14;;;;;;;7.10;5.90;;;13.00;99.90;;;;;;4909621;29;20448;-88
2022/09/16 07:03:42;;;;;;;6.00;5.40;;;13.00;99.90;;;;;;4909345;29;20546;-88
2022/09/16 07:06:09;;;;;;;7.20;6.50;;;13.00;99.90;;;;;;4907893;29;20474;-88
2022/09/16 07:08:37;;;;;;;6.57;5.77;;;13.00;99.90;;;;;;4900587;29;20962;-88
2022/09/16 07:11:17;;;;;;;6.97;5.40;;;13.00;99.90;;;;;;4916180;29;20451;-89
2022/09/16 07:13:44;;;;;;;6.33;5.47;;;13.10;99.90;;;;;;4903786;29;20561;-87
2022/09/16 07:16:11;;;;;;;6.50;5.63;;;13.00;99.90;;;;;;4898322;29;20463;-88
2022/09/16 07:18:37;;;;;;;13.90;6.17;;;12.90;99.90;;;;;;4897824;29;20451;-88
2022/09/16 07:21:27;;;;;;;5.33;4.93;;;12.90;99.90;;;;;;4893747;29;20550;-89
2022/09/16 07:23:59;;;;;;;5.50;4.50;;;12.90;99.90;;;;;;4900319;29;20476;-89
2022/09/16 07:26:52;;;;;;;5.40;4.93;;;12.90;99.90;;;;;;4892611;29;20452;-88
2022/09/16 07:29:19;;;;;;;5.40;4.47;;;12.80;99.90;;;;;;4903197;29;20459;-88
2022/09/16 07:31:45;;;;;;;6.33;4.63;;;12.80;99.90;;;;;;4893440;29;20514;-88
2022/09/16 07:34:18;;;;;;;4.77;4.33;;;12.80;99.90;;;;;;4907956;29;20464;-88
2022/09/16 07:37:22;;;;;;;5.90;4.07;;;12.80;99.90;;;;;;4901923;29;20776;-89
2022/09/16 07:40:12;;;;;;;5.00;3.90;;;12.80;99.90;;;;;;4919001;29;20453;-89
2022/09/16 07:42:38;;;;;;;4.87;4.37;;;13.00;99.90;;;;;;4906360;29;20443;-89
2022/09/16 07:45:05;;;;;;;7.50;4.80;;;13.00;99.90;;;;;;4922653;29;20475;-89
2022/09/16 07:47:32;;;;;;;4.93;4.50;;;13.10;99.90;;;;;;4904970;29;20468;-89
2022/09/16 07:49:58;;;;;;;5.77;4.40;;;13.00;99.90;;;;;;4896631;29;20447;-90
2022/09/16 07:52:47;;;;;;;4.70;4.30;;;13.00;99.90;;;;;;4922521;29;20451;-89
2022/09/16 07:55:14;;;;;;;9.13;4.17;;;12.90;99.90;;;;;;4908036;29;20963;-90
2022/09/16 07:57:40;;;;;;;4.30;3.90;;;12.80;99.90;;;;;;4898190;29;20770;-90
2022/09/16 08:00:16;;;;;;;12.80;5.90;;;12.80;99.90;;;;;;4911924;29;20642;-90
2022/09/16 08:03:19;;;;;;;5.30;4.87;;;12.90;99.90;;;;;;4906324;29;20518;-89
2022/09/16 08:06:11;;;;;;;7.50;5.50;;;13.00;99.90;;;;;;4889323;29;20487;-89
2022/09/16 08:08:54;;;;;;;4.63;4.23;;;13.10;99.90;;;;;;4876250;29;20440;-89
2022/09/16 08:11:33;;;;;;;4.10;3.80;;;13.10;99.90;;;;;;4912678;29;20447;-88
2022/09/16 08:13:59;;;;;;;5.00;4.50;;;13.10;99.90;;;;;;4908771;29;21060;-89
2022/09/16 08:16:32;;;;;;;4.90;4.20;;;13.00;99.90;;;;;;4896174;29;20452;-89
2022/09/16 08:19:13;;;;;;;4.60;4.13;;;12.90;99.90;;;;;;4902243;29;21568;-89
2022/09/16 08:21:39;;;;;;;4.93;4.53;;;12.80;99.90;;;;;;4902562;29;20443;-89
2022/09/16 08:24:35;;;;;;;4.30;3.90;;;12.90;99.90;;;;;;4922106;29;22465;-88
2022/09/16 08:27:01;;;;;;;5.30;4.20;;;13.00;99.90;;;;;;4906693;29;20336;-89
2022/09/16 08:29:27;;;;;;;5.20;4.47;;;13.00;99.90;;;;;;4906518;29;20546;-88
2022/09/16 08:31:52;;;;;;;4.77;3.90;;;13.00;99.90;;;;;;4903896;29;20490;-89
2022/09/16 08:34:18;;;;;;;5.20;4.70;;;13.30;99.90;;;;;;4904963;29;20191;-89
2022/09/16 08:36:48;;;;;;;5.43;4.77;;;13.50;99.90;;;;;;4921307;29;20191;-88
2022/09/16 08:39:14;;;;;;;4.93;4.53;;;13.70;99.90;;;;;;4905357;29;20435;-89
2022/09/16 08:42:11;;;;;;;5.00;4.60;;;13.90;99.90;;;;;;4904494;29;20207;-88
2022/09/16 08:45:00;;;;;;;5.70;4.07;;;14.10;99.90;;;;;;4908002;29;20212;-89
2022/09/16 08:47:42;;;;;;;7.03;4.53;;;14.30;99.90;;;;;;4918996;29;20447;-88
2022/09/16 08:50:27;;;;;;;4.87;4.43;;;14.40;99.90;;;;;;4903241;29;20485;-89
2022/09/16 08:53:15;;;;;;;5.57;4.50;;;14.40;99.90;;;;;;4921188;29;20534;-89
2022/09/16 08:55:47;;;;;;;5.73;4.70;;;14.30;99.90;;;;;;4920069;29;20514;-88
2022/09/16 08:58:27;;;;;;;6.17;5.20;;;13.90;99.90;;;;;;4920277;29;20444;-88
2022/09/16 09:00:57;;;;;;;4.90;4.50;;;13.70;99.90;;;;;;4903716;29;20459;-88
2022/09/16 09:03:40;;;;;;;4.93;4.53;;;13.70;99.90;;;;;;4919749;29;20447;-88
2022/09/16 09:06:20;;;;;;;6.00;5.40;;;13.60;99.90;;;;;;4921668;29;22082;-88
2022/09/16 09:08:55;;;;;;;5.57;5.17;;;13.60;99.90;;;;;;4920552;29;20427;-88
2022/09/16 09:11:47;;;;;;;5.80;5.30;;;13.40;99.90;;;;;;4923735;28;20446;-89
2022/09/16 09:14:33;;;;;;;5.60;5.10;;;13.40;99.90;;;;;;4909320;29;20444;-88
2022/09/16 09:17:23;;;;;;;6.87;5.93;;;13.70;99.90;;;;;;4905604;29;20439;-88
2022/09/16 09:20:10;;;;;;;6.47;5.80;;;13.90;99.90;;;;;;4922754;29;20487;-89
2022/09/16 09:23:05;;;;;;;5.90;5.40;;;14.00;99.90;;;;;;4926794;29;20439;-88
2022/09/16 09:25:45;;;;;;;6.90;6.20;;;14.10;99.90;;;;;;4911599;29;20480;-88
2022/09/16 09:28:40;;;;;;;5.60;5.20;;;14.20;99.90;;;;;;4904934;29;20471;-88
2022/09/16 09:31:51;;;;;;;6.80;5.83;;;14.10;99.90;;;;;;4910990;29;20490;-88
2022/09/16 09:34:28;;;;;;;4.70;4.27;;;14.30;99.90;;;;;;4911168;29;21156;-88
2022/09/16 09:37:23;;;;;;;5.17;4.70;;;14.20;99.90;;;;;;4911449;29;20447;-88
2022/09/16 09:40:08;;;;;;;6.07;4.67;;;14.20;99.90;;;;;;4910790;29;20816;-88
2022/09/16 09:42:55;;;;;;;5.33;4.83;;;14.10;99.90;;;;;;4894801;29;20451;-88
2022/09/16 09:45:33;;;;;;;6.13;5.43;;;13.90;99.90;;;;;;4903691;29;20834;-88
2022/09/16 09:48:09;;;;;;;6.50;4.83;;;13.90;99.90;;;;;;4897197;29;20526;-87
2022/09/16 09:50:47;;;;;;;7.57;4.87;;;13.80;99.90;;;;;;4908385;29;20465;-88
2022/09/16 09:53:31;;;;;;;6.53;5.97;;;13.80;99.90;;;;;;4897168;29;20447;-88
2022/09/16 09:56:15;;;;;;;6.13;5.53;;;13.90;99.90;;;;;;4903466;29;20772;-87
2022/09/16 09:59:00;;;;;;;7.03;6.33;;;14.00;99.90;;;;;;4909932;29;20461;-88
2022/09/16 10:01:26;;;;;;;7.03;6.53;;;14.00;99.90;;;;;;4916079;29;20486;-87
2022/09/16 10:03:54;;;;;;;6.83;5.77;;;14.00;99.90;;;;;;4910682;29;20530;-87
2022/09/16 10:06:26;;;;;;;6.17;5.63;;;14.00;99.90;;;;;;4907928;29;20685;-87
2022/09/16 10:08:55;;;;;;;7.13;6.50;;;14.00;99.90;;;;;;4897769;29;20452;-87
2022/09/16 10:11:24;;;;;;;7.10;6.40;;;13.90;99.90;;;;;;4895030;29;20483;-88
2022/09/16 10:13:56;;;;;;;6.90;6.30;;;13.90;99.90;;;;;;4907767;29;20775;-88
2022/09/16 10:16:42;;;;;;;11.10;7.00;;;13.90;99.90;;;;;;4897672;29;20959;-88
2022/09/16 10:19:26;;;;;;;7.40;6.67;;;13.70;99.90;;;;;;4896401;29;20472;-88
2022/09/16 10:22:21;;;;;;;6.57;5.93;;;13.80;99.90;;;;;;4908185;28;20452;-88
2022/09/16 10:25:20;;;;;;;6.20;5.70;;;13.90;99.90;;;;;;4910549;29;20529;-88
2022/09/16 10:28:04;;;;;;;6.27;5.77;;;14.30;99.90;;;;;;4897035;29;20471;-87
2022/09/16 10:30:52;;;;;;;6.60;6.00;;;14.70;99.90;;;;;;4912637;29;20455;-88
2022/09/16 10:33:39;;;;;;;6.23;5.70;;;15.50;99.90;;;;;;4895059;29;20480;-88
2022/09/16 10:36:08;;;;;;;6.07;5.67;;;15.80;99.90;;;;;;4917599;29;20561;-87
2022/09/16 10:38:53;;;;;;;6.67;6.03;;;15.70;99.90;;;;;;4894592;29;20432;-88
2022/09/16 10:41:23;;;;;;;6.80;6.20;;;15.40;99.90;;;;;;4900068;29;20451;-87
2022/09/16 10:43:57;;;;;;;5.83;5.23;;;15.30;99.90;;;;;;4906640;29;20966;-87
2022/09/16 10:46:43;;;;;;;7.03;6.37;;;15.20;99.90;;;;;;4914064;29;20653;-89
2022/09/16 10:49:10;;;;;;;6.80;5.70;;;15.20;99.90;;;;;;4892891;29;20992;-87
2022/09/16 10:51:44;;;;;;;5.67;5.20;;;15.20;99.90;;;;;;4904970;29;21029;-88
2022/09/16 10:54:27;;;;;;;6.77;6.13;;;15.30;99.90;;;;;;4894673;29;20443;-87
2022/09/16 10:56:53;;;;;;;5.97;5.50;;;15.30;99.90;;;;;;4893308;29;20581;-88
2022/09/16 10:59:19;;;;;;;6.00;5.47;;;15.10;99.90;;;;;;4893572;29;20964;-88
2022/09/16 11:01:59;;;;;;;5.17;4.70;;;14.80;99.90;;;;;;4911428;29;20532;-89
2022/09/16 11:04:49;;;;;;;5.33;4.80;;;14.50;99.90;;;;;;4901930;29;20216;-87
2022/09/16 11:07:32;;;;;;;5.03;4.60;;;14.60;99.90;;;;;;4897723;29;20445;-89
2022/09/16 11:10:39;;;;;;;5.50;4.80;;;14.30;99.90;;;;;;4895398;29;20470;-89
2022/09/16 11:13:53;;;;;;;6.30;5.67;;;14.20;99.90;;;;;;4887141;29;20447;-89
2022/09/16 11:17:10;;;;;;;5.40;4.67;;;14.10;99.90;;;;;;4902642;29;20454;-88
2022/09/16 11:19:54;;;;;;;5.73;5.27;;;14.10;99.90;;;;;;4905417;29;20802;-88
2022/09/16 11:22:36;;;;;;;7.90;5.60;;;14.20;99.90;;;;;;4894522;29;20478;-89
2022/09/16 11:25:22;;;;;;;5.37;4.90;;;14.20;99.90;;;;;;4896361;29;20525;-88
2022/09/16 11:28:03;;;;;;;4.73;4.37;;;14.40;99.90;;;;;;4892274;29;21415;-88
2022/09/16 11:30:34;;;;;;;6.27;5.73;;;14.30;99.90;;;;;;4893087;29;21472;-89
2022/09/16 11:33:41;;;;;;;6.73;6.23;;;14.20;99.90;;;;;;4915866;29;20553;-88
2022/09/16 11:36:49;;;;;;;6.63;5.03;;;14.40;99.90;;;;;;4890623;29;20547;-88
2022/09/16 11:40:05;;;;;;;6.37;5.83;;;14.40;99.90;;;;;;4906368;29;20494;-88
2022/09/16 11:42:53;;;;;;;6.20;4.57;;;14.60;99.90;;;;;;4835589;29;20503;-88
2022/09/16 11:45:47;;;;;;;4.90;4.60;;;14.70;99.90;;;;;;4822144;29;20495;-88
2022/09/16 11:48:22;;;;;;;4.80;4.30;;;14.50;99.90;;;;;;4876705;29;20660;-88
2022/09/16 11:51:15;;;;;;;5.87;5.27;;;14.40;99.90;;;;;;4894797;29;20455;-88
2022/09/16 11:54:01;;;;;;;5.03;4.63;;;14.20;99.90;;;;;;4893485;29;20492;-89
2022/09/16 11:57:03;;;;;;;6.13;4.67;;;14.40;99.90;;;;;;4892311;29;20582;-89
2022/09/16 11:59:47;;;;;;;5.00;4.60;;;14.50;99.90;;;;;;4890280;29;20439;-89
2022/09/16 12:02:21;;;;;;;6.80;5.20;;;14.60;99.90;;;;;;4899278;29;20542;-90
2022/09/16 12:05:13;;;;;;;4.80;4.47;;;14.70;99.90;;;;;;4893174;29;20483;-88
2022/09/16 12:07:49;;;;;;;4.23;3.83;;;15.00;99.90;;;;;;4893039;29;20813;-89
2022/09/16 12:10:38;;;;;;;3.37;3.07;;;14.90;99.90;;;;;;4910630;29;20456;-89
2022/09/16 12:13:14;;;;;;;2.43;2.23;;;14.90;99.90;;;;;;4891111;29;20451;-89
2022/09/16 12:15:49;;;;;;;3.00;2.70;;;14.90;99.90;;;;;;4897504;29;20466;-88
2022/09/16 12:18:44;;;;;;;3.27;2.83;;;14.80;99.90;;;;;;4910883;29;20455;-87
2022/09/16 12:21:47;;;;;;;2.90;2.70;;;15.00;99.90;;;;;;4912266;29;20447;-89
2022/09/16 12:24:18;;;;;;;3.73;2.90;;;15.40;99.90;;;;;;4907311;29;20471;-89
2022/09/16 12:27:05;;;;;;;2.70;2.50;;;15.80;99.90;;;;;;4909380;29;20455;-89
2022/09/16 12:30:05;;;;;;;2.60;2.40;;;16.10;99.90;;;;;;4910900;29;20455;-88
2022/09/16 12:32:45;;;;;;;2.90;1.70;;;15.90;99.90;;;;;;4880829;29;20447;-88
2022/09/16 12:35:19;;;;;;;2.50;2.00;;;15.80;99.90;;;;;;4888669;29;20472;-88
2022/09/16 12:37:49;;;;;;;4.67;2.33;;;15.90;99.90;;;;;;4890285;29;20505;-88
2022/09/16 12:40:23;;;;;;;3.60;1.73;;;15.80;99.90;;;;;;4897946;29;20447;-88
2022/09/16 12:43:07;;;;;;;2.37;2.17;;;15.70;99.90;;;;;;4892184;29;20448;-88
2022/09/16 12:45:43;;;;;;;3.43;2.03;;;15.50;99.90;;;;;;4903483;29;20572;-88
2022/09/16 12:48:33;;;;;;;2.77;2.20;;;15.50;99.90;;;;;;4917225;29;20534;-89
2022/09/16 12:51:25;;;;;;;1.93;1.80;;;15.30;99.90;;;;;;4896277;29;20960;-87
2022/09/16 12:54:33;;;;;;;6.47;1.80;;;15.10;99.90;;;;;;4913444;29;20447;-87
2022/09/16 12:57:33;;;;;;;2.07;1.87;;;15.00;99.90;;;;;;4870567;29;20462;-88
2022/09/16 13:00:11;;;;;;;4.13;2.07;;;15.00;99.90;;;;;;4912792;29;20455;-87
2022/09/16 13:02:55;;;;;;;2.00;1.80;;;14.90;99.90;;;;;;4913047;29;20446;-88
2022/09/16 13:05:30;;;;;;;2.53;2.00;;;14.80;99.90;;;;;;4897774;29;20482;-89
2022/09/16 13:08:03;;;;;;;4.67;2.20;;;14.70;99.90;;;;;;4910155;29;20453;-88
2022/09/16 13:10:36;;;;;;;3.93;2.90;;;14.70;99.90;;;;;;4911417;29;20544;-89
2022/09/16 13:13:03;;;;;;;5.80;2.10;;;14.70;99.90;;;;;;4909671;29;20458;-88
2022/09/16 13:15:35;;;;;;;6.60;2.33;;;15.00;99.90;;;;;;4913439;29;20481;-89
2022/09/16 13:18:13;;;;;;;3.00;2.40;;;15.00;99.90;;;;;;4915714;29;20443;-88
2022/09/16 13:20:49;;;;;;;4.53;2.90;;;15.10;99.90;;;;;;4905222;29;20817;-88
2022/09/16 13:23:31;;;;;;;3.23;2.60;;;15.10;99.90;;;;;;4907971;29;20462;-89
2022/09/16 13:26:05;;;;;;;3.73;1.93;;;15.20;99.90;;;;;;4893777;29;20963;-88
2022/09/16 13:28:31;;;;;;;3.90;2.50;;;15.10;99.90;;;;;;4912762;29;20459;-89
2022/09/16 13:31:15;;;;;;;3.27;2.17;;;15.20;99.90;;;;;;4898090;29;20507;-88
2022/09/16 13:33:43;;;;;;;2.87;2.43;;;15.10;99.90;;;;;;4898912;29;20183;-88